sensor_id;sensor_type;location;lat;lon;timestamp;pressure;altitude;pressure_sealevel;temperature;humidity
36664;BME280;53333;51.976;20.144;2022-07-22T00:00:14;100177.97;;;24.28;46.54
36664;BME280;53333;51.976;20.144;2022-07-22T00:02:48;100182.03;;;24.24;46.42
36664;BME280;53333;51.976;20.144;2022-07-22T00:05:22;100175.91;;;24.22;46.82
36664;BME280;53333;51.976;20.144;2022-07-22T00:07:56;100175.34;;;24.19;46.85
36664;BME280;53333;51.976;20.144;2022-07-22T00:10:29;100178.44;;;24.16;46.67
36664;BME280;53333;51.976;20.144;2022-07-22T00:13:04;100166.81;;;24.14;46.81
36664;BME280;53333;51.976;20.144;2022-07-22T00:15:38;100165.28;;;24.11;46.73
36664;BME280;53333;51.976;20.144;2022-07-22T00:18:12;100159.28;;;24.07;47.23
36664;BME280;53333;51.976;20.144;2022-07-22T00:20:45;100167.78;;;24.04;47.43
36664;BME280;53333;51.976;20.144;2022-07-22T00:23:19;100170.81;;;24.01;47.32
36664;BME280;53333;51.976;20.144;2022-07-22T00:25:53;100167.56;;;23.98;47.53
36664;BME280;53333;51.976;20.144;2022-07-22T00:28:28;100161.75;;;23.92;47.54
36664;BME280;53333;51.976;20.144;2022-07-22T00:31:02;100161.22;;;23.89;47.33
36664;BME280;53333;51.976;20.144;2022-07-22T00:33:35;100167.00;;;23.86;47.80
36664;BME280;53333;51.976;20.144;2022-07-22T00:36:09;100168.16;;;23.83;47.98
36664;BME280;53333;51.976;20.144;2022-07-22T00:38:42;100172.91;;;23.81;47.93
36664;BME280;53333;51.976;20.144;2022-07-22T00:41:16;100174.94;;;23.79;47.39
36664;BME280;53333;51.976;20.144;2022-07-22T00:43:53;100186.84;;;23.78;47.24
36664;BME280;53333;51.976;20.144;2022-07-22T00:46:29;100234.22;;;23.77;47.67
36664;BME280;53333;51.976;20.144;2022-07-22T00:49:25;100243.00;;;23.71;47.98
36664;BME280;53333;51.976;20.144;2022-07-22T00:51:59;100237.97;;;23.58;48.18
36664;BME280;53333;51.976;20.144;2022-07-22T00:54:33;100239.63;;;23.51;48.57
36664;BME280;53333;51.976;20.144;2022-07-22T00:57:07;100252.16;;;23.44;48.89
36664;BME280;53333;51.976;20.144;2022-07-22T00:59:42;100259.25;;;23.36;49.64
36664;BME280;53333;51.976;20.144;2022-07-22T01:02:16;100255.56;;;23.28;50.01
36664;BME280;53333;51.976;20.144;2022-07-22T01:04:49;100247.03;;;23.23;49.78
36664;BME280;53333;51.976;20.144;2022-07-22T01:07:25;100225.53;;;23.19;49.85
36664;BME280;53333;51.976;20.144;2022-07-22T01:09:59;100223.69;;;23.20;49.91
36664;BME280;53333;51.976;20.144;2022-07-22T01:12:32;100244.44;;;23.21;49.67
36664;BME280;53333;51.976;20.144;2022-07-22T01:15:09;100257.91;;;23.23;50.24
36664;BME280;53333;51.976;20.144;2022-07-22T01:17:42;100250.59;;;23.23;50.27
36664;BME280;53333;51.976;20.144;2022-07-22T01:20:17;100249.59;;;23.24;50.99
36664;BME280;53333;51.976;20.144;2022-07-22T01:22:51;100245.31;;;23.21;50.82
36664;BME280;53333;51.976;20.144;2022-07-22T01:25:25;100247.47;;;23.18;50.73
36664;BME280;53333;51.976;20.144;2022-07-22T01:27:59;100244.06;;;23.16;50.73
36664;BME280;53333;51.976;20.144;2022-07-22T01:30:33;100249.81;;;23.13;51.06
36664;BME280;53333;51.976;20.144;2022-07-22T01:33:07;100240.81;;;23.12;50.61
36664;BME280;53333;51.976;20.144;2022-07-22T01:35:42;100230.91;;;23.11;50.95
36664;BME280;53333;51.976;20.144;2022-07-22T01:38:16;100240.06;;;23.10;51.05
36664;BME280;53333;51.976;20.144;2022-07-22T01:40:49;100238.53;;;23.08;51.31
36664;BME280;53333;51.976;20.144;2022-07-22T01:43:23;100224.34;;;23.04;51.36
36664;BME280;53333;51.976;20.144;2022-07-22T01:45:58;100231.78;;;23.02;51.64
36664;BME280;53333;51.976;20.144;2022-07-22T01:48:31;100215.75;;;22.99;51.46
36664;BME280;53333;51.976;20.144;2022-07-22T01:51:07;100203.47;;;22.95;51.77
36664;BME280;53333;51.976;20.144;2022-07-22T01:53:42;100207.03;;;22.95;51.67
36664;BME280;53333;51.976;20.144;2022-07-22T01:56:16;100195.31;;;22.95;51.37
36664;BME280;53333;51.976;20.144;2022-07-22T01:58:54;100196.47;;;22.92;51.73
36664;BME280;53333;51.976;20.144;2022-07-22T02:01:31;100198.19;;;22.93;51.37
36664;BME280;53333;51.976;20.144;2022-07-22T02:04:05;100198.19;;;22.93;51.75
36664;BME280;53333;51.976;20.144;2022-07-22T02:06:40;100186.59;;;22.91;51.41
36664;BME280;53333;51.976;20.144;2022-07-22T02:09:15;100194.19;;;22.88;51.60
36664;BME280;53333;51.976;20.144;2022-07-22T02:11:53;100180.88;;;22.84;51.89
36664;BME280;53333;51.976;20.144;2022-07-22T02:14:28;100184.78;;;22.82;51.93
36664;BME280;53333;51.976;20.144;2022-07-22T02:17:01;100190.53;;;22.79;51.90
36664;BME280;53333;51.976;20.144;2022-07-22T02:19:35;100212.31;;;22.79;52.20
36664;BME280;53333;51.976;20.144;2022-07-22T02:22:11;100219.06;;;22.75;52.73
36664;BME280;53333;51.976;20.144;2022-07-22T02:24:45;100216.94;;;22.68;52.89
36664;BME280;53333;51.976;20.144;2022-07-22T02:27:18;100223.88;;;22.63;52.87
36664;BME280;53333;51.976;20.144;2022-07-22T02:29:52;100227.19;;;22.57;52.91
36664;BME280;53333;51.976;20.144;2022-07-22T02:32:26;100229.66;;;22.50;53.35
36664;BME280;53333;51.976;20.144;2022-07-22T02:35:00;100230.97;;;22.46;53.52
36664;BME280;53333;51.976;20.144;2022-07-22T02:37:35;100221.56;;;22.40;53.92
36664;BME280;53333;51.976;20.144;2022-07-22T02:40:10;100211.97;;;22.36;54.04
36664;BME280;53333;51.976;20.144;2022-07-22T02:42:44;100210.25;;;22.35;53.97
36664;BME280;53333;51.976;20.144;2022-07-22T02:45:18;100206.81;;;22.33;53.86
36664;BME280;53333;51.976;20.144;2022-07-22T02:47:53;100208.69;;;22.33;53.85
36664;BME280;53333;51.976;20.144;2022-07-22T02:50:28;100210.69;;;22.30;53.87
36664;BME280;53333;51.976;20.144;2022-07-22T02:53:03;100210.09;;;22.27;54.22
36664;BME280;53333;51.976;20.144;2022-07-22T02:55:42;100220.28;;;22.25;54.30
36664;BME280;53333;51.976;20.144;2022-07-22T02:58:15;100224.16;;;22.22;54.40
36664;BME280;53333;51.976;20.144;2022-07-22T03:00:50;100209.16;;;22.18;54.35
36664;BME280;53333;51.976;20.144;2022-07-22T03:03:24;100213.72;;;22.18;54.17
36664;BME280;53333;51.976;20.144;2022-07-22T03:05:59;100216.28;;;22.19;54.55
36664;BME280;53333;51.976;20.144;2022-07-22T03:08:43;100202.53;;;22.21;54.67
36664;BME280;53333;51.976;20.144;2022-07-22T03:11:18;100212.56;;;22.20;54.13
36664;BME280;53333;51.976;20.144;2022-07-22T03:13:51;100216.13;;;22.21;54.74
36664;BME280;53333;51.976;20.144;2022-07-22T03:16:25;100216.00;;;22.22;54.92
36664;BME280;53333;51.976;20.144;2022-07-22T03:19:00;100212.41;;;22.22;54.35
36664;BME280;53333;51.976;20.144;2022-07-22T03:21:33;100209.00;;;22.20;54.75
36664;BME280;53333;51.976;20.144;2022-07-22T03:24:08;100208.28;;;22.18;54.59
36664;BME280;53333;51.976;20.144;2022-07-22T03:26:42;100213.72;;;22.18;54.64
36664;BME280;53333;51.976;20.144;2022-07-22T03:29:16;100209.16;;;22.18;54.49
36664;BME280;53333;51.976;20.144;2022-07-22T03:31:56;100207.28;;;22.19;54.81
36664;BME280;53333;51.976;20.144;2022-07-22T03:34:42;100211.72;;;22.20;54.50
36664;BME280;53333;51.976;20.144;2022-07-22T03:37:16;100215.28;;;22.20;54.23
36664;BME280;53333;51.976;20.144;2022-07-22T03:39:51;100207.13;;;22.20;54.61
36664;BME280;53333;51.976;20.144;2022-07-22T03:42:25;100215.16;;;22.22;54.72
36664;BME280;53333;51.976;20.144;2022-07-22T03:44:58;100207.69;;;22.24;54.73
36664;BME280;53333;51.976;20.144;2022-07-22T03:47:32;100210.97;;;22.27;54.77
36664;BME280;53333;51.976;20.144;2022-07-22T03:50:06;100205.25;;;22.30;54.63
36664;BME280;53333;51.976;20.144;2022-07-22T03:52:40;100199.34;;;22.35;54.29
36664;BME280;53333;51.976;20.144;2022-07-22T03:55:16;100196.19;;;22.40;54.03
36664;BME280;53333;51.976;20.144;2022-07-22T03:57:54;100198.63;;;22.43;53.91
36664;BME280;53333;51.976;20.144;2022-07-22T04:00:32;100192.88;;;22.46;54.05
36664;BME280;53333;51.976;20.144;2022-07-22T04:03:08;100201.28;;;22.53;53.79
36664;BME280;53333;51.976;20.144;2022-07-22T04:06:00;100196.41;;;22.56;53.16
36664;BME280;53333;51.976;20.144;2022-07-22T04:08:47;100192.38;;;22.60;53.31
36664;BME280;53333;51.976;20.144;2022-07-22T04:11:23;100194.63;;;22.65;52.99
36664;BME280;53333;51.976;20.144;2022-07-22T04:13:57;100203.19;;;22.70;52.77
36664;BME280;53333;51.976;20.144;2022-07-22T04:16:31;100195.25;;;22.77;52.80
36664;BME280;53333;51.976;20.144;2022-07-22T04:19:11;100202.81;;;22.83;52.80
36664;BME280;53333;51.976;20.144;2022-07-22T04:21:59;100198.34;;;22.92;52.50
36664;BME280;53333;51.976;20.144;2022-07-22T04:24:34;100198.88;;;22.95;52.47
36664;BME280;53333;51.976;20.144;2022-07-22T04:27:09;100195.16;;;22.96;52.47
36664;BME280;53333;51.976;20.144;2022-07-22T04:29:43;100196.69;;;22.99;52.37
36664;BME280;53333;51.976;20.144;2022-07-22T04:32:17;100190.41;;;22.98;52.48
36664;BME280;53333;51.976;20.144;2022-07-22T04:34:51;100195.53;;;23.01;52.33
36664;BME280;53333;51.976;20.144;2022-07-22T04:37:25;100196.81;;;23.07;52.66
36664;BME280;53333;51.976;20.144;2022-07-22T04:39:58;100198.91;;;23.13;52.60
36664;BME280;53333;51.976;20.144;2022-07-22T04:42:34;100193.56;;;23.21;52.83
36664;BME280;53333;51.976;20.144;2022-07-22T04:45:09;100193.63;;;23.30;52.85
36664;BME280;53333;51.976;20.144;2022-07-22T04:47:48;100197.28;;;23.38;52.01
36664;BME280;53333;51.976;20.144;2022-07-22T04:50:21;100190.03;;;23.47;51.69
36664;BME280;53333;51.976;20.144;2022-07-22T04:53:03;100181.78;;;23.57;51.64
36664;BME280;53333;51.976;20.144;2022-07-22T04:55:37;100186.44;;;23.65;51.32
36664;BME280;53333;51.976;20.144;2022-07-22T04:58:13;100193.63;;;23.74;51.59
36664;BME280;53333;51.976;20.144;2022-07-22T05:00:50;100190.84;;;23.84;50.45
36664;BME280;53333;51.976;20.144;2022-07-22T05:03:24;100199.94;;;23.92;50.30
36664;BME280;53333;51.976;20.144;2022-07-22T05:05:59;100199.81;;;24.02;50.02
36664;BME280;53333;51.976;20.144;2022-07-22T05:08:38;100199.69;;;24.12;50.81
36664;BME280;53333;51.976;20.144;2022-07-22T05:11:12;100199.59;;;24.22;50.12
36664;BME280;53333;51.976;20.144;2022-07-22T05:13:48;100195.03;;;24.30;49.81
36664;BME280;53333;51.976;20.144;2022-07-22T05:16:22;100203.94;;;24.41;49.83
36664;BME280;53333;51.976;20.144;2022-07-22T05:18:55;100200.91;;;24.52;50.26
36664;BME280;53333;51.976;20.144;2022-07-22T05:21:30;100199.63;;;24.64;50.73
36664;BME280;53333;51.976;20.144;2022-07-22T05:24:05;100202.94;;;24.76;49.50
36664;BME280;53333;51.976;20.144;2022-07-22T05:26:39;100206.38;;;24.87;49.51
36664;BME280;53333;51.976;20.144;2022-07-22T05:29:15;100215.09;;;24.98;48.87
36664;BME280;53333;51.976;20.144;2022-07-22T05:31:48;100225.69;;;25.10;48.62
36664;BME280;53333;51.976;20.144;2022-07-22T05:34:22;100226.75;;;25.17;48.33
36664;BME280;53333;51.976;20.144;2022-07-22T05:36:58;100226.06;;;25.23;48.34
36664;BME280;53333;51.976;20.144;2022-07-22T05:39:32;100233.81;;;25.28;47.98
36664;BME280;53333;51.976;20.144;2022-07-22T05:42:06;100242.00;;;25.36;47.49
36664;BME280;53333;51.976;20.144;2022-07-22T05:44:41;100236.03;;;25.41;48.13
36664;BME280;53333;51.976;20.144;2022-07-22T05:47:15;100238.59;;;25.50;47.58
36664;BME280;53333;51.976;20.144;2022-07-22T05:49:49;100246.13;;;25.56;47.51
36664;BME280;53333;51.976;20.144;2022-07-22T05:52:23;100241.50;;;25.65;48.22
36664;BME280;53333;51.976;20.144;2022-07-22T05:54:59;100233.13;;;25.75;48.00
36664;BME280;53333;51.976;20.144;2022-07-22T05:57:33;100248.50;;;25.84;47.60
36664;BME280;53333;51.976;20.144;2022-07-22T06:00:09;100245.09;;;25.99;47.56
36664;BME280;53333;51.976;20.144;2022-07-22T06:02:47;100244.38;;;26.13;47.62
36664;BME280;53333;51.976;20.144;2022-07-22T06:05:24;100242.81;;;26.27;47.25
36664;BME280;53333;51.976;20.144;2022-07-22T06:08:11;100248.94;;;26.45;47.75
36664;BME280;53333;51.976;20.144;2022-07-22T06:10:51;100247.50;;;26.58;47.69
36664;BME280;53333;51.976;20.144;2022-07-22T06:13:26;100253.69;;;26.68;47.10
36664;BME280;53333;51.976;20.144;2022-07-22T06:16:03;100246.97;;;26.79;47.39
36664;BME280;53333;51.976;20.144;2022-07-22T06:18:37;100241.75;;;26.92;47.29
36664;BME280;53333;51.976;20.144;2022-07-22T06:21:11;100248.53;;;27.05;47.81
36664;BME280;53333;51.976;20.144;2022-07-22T06:23:45;100247.94;;;27.17;47.48
36664;BME280;53333;51.976;20.144;2022-07-22T06:26:19;100245.81;;;27.28;46.67
36664;BME280;53333;51.976;20.144;2022-07-22T06:28:53;100251.94;;;27.38;46.79
36664;BME280;53333;51.976;20.144;2022-07-22T06:31:31;100254.06;;;27.51;46.73
36664;BME280;53333;51.976;20.144;2022-07-22T06:34:05;100253.09;;;27.67;46.89
36664;BME280;53333;51.976;20.144;2022-07-22T06:36:57;100255.88;;;27.82;45.86
36664;BME280;53333;51.976;20.144;2022-07-22T06:39:32;100248.03;;;27.94;45.72
36664;BME280;53333;51.976;20.144;2022-07-22T06:42:20;100253.41;;;28.10;45.66
36664;BME280;53333;51.976;20.144;2022-07-22T06:45:15;100252.22;;;28.27;45.81
36664;BME280;53333;51.976;20.144;2022-07-22T06:48:12;100252.66;;;28.46;45.69
36664;BME280;53333;51.976;20.144;2022-07-22T06:50:46;100261.13;;;28.59;44.78
36664;BME280;53333;51.976;20.144;2022-07-22T06:53:25;100256.00;;;28.71;44.99
36664;BME280;53333;51.976;20.144;2022-07-22T06:55:59;100252.38;;;28.86;44.56
36664;BME280;53333;51.976;20.144;2022-07-22T06:58:37;100247.72;;;29.01;44.37
36664;BME280;53333;51.976;20.144;2022-07-22T07:01:15;100247.31;;;29.19;43.68
36664;BME280;53333;51.976;20.144;2022-07-22T07:04:01;100241.34;;;29.37;44.28
36664;BME280;53333;51.976;20.144;2022-07-22T07:06:35;100240.44;;;29.51;43.79
36664;BME280;53333;51.976;20.144;2022-07-22T07:09:20;100236.75;;;29.66;42.47
36664;BME280;53333;51.976;20.144;2022-07-22T07:12:06;100239.16;;;29.76;43.62
36664;BME280;53333;51.976;20.144;2022-07-22T07:14:58;100236.81;;;29.94;43.57
36664;BME280;53333;51.976;20.144;2022-07-22T07:17:52;100238.06;;;30.20;42.49
36664;BME280;53333;51.976;20.144;2022-07-22T07:20:28;100241.81;;;30.40;42.55
36664;BME280;53333;51.976;20.144;2022-07-22T07:23:03;100237.28;;;30.61;41.46
36664;BME280;53333;51.976;20.144;2022-07-22T07:25:44;100233.97;;;30.86;41.49
36664;BME280;53333;51.976;20.144;2022-07-22T07:28:22;100245.53;;;31.03;40.10
36664;BME280;53333;51.976;20.144;2022-07-22T07:31:02;100233.06;;;31.20;40.00
36664;BME280;53333;51.976;20.144;2022-07-22T07:33:36;100239.06;;;31.37;39.49
36664;BME280;53333;51.976;20.144;2022-07-22T07:36:15;100251.22;;;31.56;39.28
36664;BME280;53333;51.976;20.144;2022-07-22T07:38:53;100248.22;;;31.78;39.09
36664;BME280;53333;51.976;20.144;2022-07-22T07:41:29;100249.91;;;31.99;38.53
36664;BME280;53333;51.976;20.144;2022-07-22T07:44:06;100245.03;;;32.21;38.69
36664;BME280;53333;51.976;20.144;2022-07-22T07:46:42;100242.25;;;32.41;38.73
36664;BME280;53333;51.976;20.144;2022-07-22T07:49:16;100250.06;;;32.64;38.17
36664;BME280;53333;51.976;20.144;2022-07-22T07:51:51;100249.13;;;32.90;37.96
36664;BME280;53333;51.976;20.144;2022-07-22T07:54:27;100244.75;;;33.15;37.24
36664;BME280;53333;51.976;20.144;2022-07-22T07:57:08;100248.06;;;33.37;36.36
36664;BME280;53333;51.976;20.144;2022-07-22T07:59:45;100247.56;;;33.46;35.30
36664;BME280;53333;51.976;20.144;2022-07-22T08:02:19;100244.50;;;33.55;34.91
36664;BME280;53333;51.976;20.144;2022-07-22T08:04:53;100245.56;;;33.60;35.06
36664;BME280;53333;51.976;20.144;2022-07-22T08:07:32;100250.59;;;33.63;35.21
36664;BME280;53333;51.976;20.144;2022-07-22T08:10:07;100250.84;;;33.62;34.83
36664;BME280;53333;51.976;20.144;2022-07-22T08:13:16;100248.53;;;33.59;34.96
36664;BME280;53333;51.976;20.144;2022-07-22T08:15:53;100243.84;;;33.59;34.59
36664;BME280;53333;51.976;20.144;2022-07-22T08:18:30;100247.38;;;33.66;35.34
36664;BME280;53333;51.976;20.144;2022-07-22T08:21:07;100246.94;;;33.70;35.88
36664;BME280;53333;51.976;20.144;2022-07-22T08:24:01;100244.19;;;33.70;36.22
36664;BME280;53333;51.976;20.144;2022-07-22T08:26:35;100244.19;;;33.70;35.11
36664;BME280;53333;51.976;20.144;2022-07-22T08:29:09;100251.16;;;33.79;35.00
36664;BME280;53333;51.976;20.144;2022-07-22T08:31:43;100249.81;;;33.88;34.64
36664;BME280;53333;51.976;20.144;2022-07-22T08:34:20;100262.03;;;34.06;35.23
36664;BME280;53333;51.976;20.144;2022-07-22T08:36:54;100251.16;;;34.29;34.16
36664;BME280;53333;51.976;20.144;2022-07-22T08:39:29;100250.84;;;34.56;33.56
36664;BME280;53333;51.976;20.144;2022-07-22T08:42:03;100252.56;;;34.94;34.35
36664;BME280;53333;51.976;20.144;2022-07-22T08:44:37;100259.41;;;35.40;33.82
36664;BME280;53333;51.976;20.144;2022-07-22T08:47:11;100257.84;;;35.87;32.55
36664;BME280;53333;51.976;20.144;2022-07-22T08:50:32;100259.91;;;36.62;31.03
36664;BME280;53333;51.976;20.144;2022-07-22T08:53:22;100270.97;;;37.55;30.03
36664;BME280;53333;51.976;20.144;2022-07-22T08:56:00;100267.56;;;38.72;27.58
36664;BME280;53333;51.976;20.144;2022-07-22T08:58:34;100274.81;;;39.99;26.81
36664;BME280;53333;51.976;20.144;2022-07-22T09:01:10;100278.56;;;41.26;24.71
36664;BME280;53333;51.976;20.144;2022-07-22T09:03:53;100267.66;;;42.58;23.55
36664;BME280;53333;51.976;20.144;2022-07-22T09:06:32;100275.78;;;43.70;21.18
36664;BME280;53333;51.976;20.144;2022-07-22T09:09:08;100267.19;;;44.73;20.25
36664;BME280;53333;51.976;20.144;2022-07-22T09:12:19;100267.56;;;46.00;18.82
36664;BME280;53333;51.976;20.144;2022-07-22T09:15:15;100264.97;;;46.92;17.97
36664;BME280;53333;51.976;20.144;2022-07-22T09:17:58;100271.50;;;47.52;16.96
36664;BME280;53333;51.976;20.144;2022-07-22T09:20:44;100267.88;;;47.74;16.90
36664;BME280;53333;51.976;20.144;2022-07-22T09:23:49;100263.50;;;48.22;16.68
36664;BME280;53333;51.976;20.144;2022-07-22T09:26:32;100255.41;;;48.78;15.94
36664;BME280;53333;51.976;20.144;2022-07-22T09:29:26;100257.66;;;49.42;15.38
36664;BME280;53333;51.976;20.144;2022-07-22T09:32:17;100266.81;;;49.83;15.22
36664;BME280;53333;51.976;20.144;2022-07-22T09:35:02;100256.38;;;50.22;15.18
36664;BME280;53333;51.976;20.144;2022-07-22T09:37:50;100255.06;;;50.58;13.67
36664;BME280;53333;51.976;20.144;2022-07-22T09:40:26;100253.84;;;50.97;13.72
36664;BME280;53333;51.976;20.144;2022-07-22T09:43:02;100250.75;;;51.32;14.02
36664;BME280;53333;51.976;20.144;2022-07-22T09:45:45;100256.84;;;51.55;13.28
36664;BME280;53333;51.976;20.144;2022-07-22T09:48:20;100258.03;;;51.75;13.36
36664;BME280;53333;51.976;20.144;2022-07-22T09:51:14;100260.41;;;51.86;12.83
36664;BME280;53333;51.976;20.144;2022-07-22T09:54:07;100261.09;;;52.04;12.97
36664;BME280;53333;51.976;20.144;2022-07-22T09:56:42;100267.13;;;52.15;12.57
36664;BME280;53333;51.976;20.144;2022-07-22T09:59:16;100275.44;;;52.20;12.16
36664;BME280;53333;51.976;20.144;2022-07-22T10:02:00;100263.72;;;52.09;12.13
36664;BME280;53333;51.976;20.144;2022-07-22T10:04:38;100264.94;;;51.87;12.50
36664;BME280;53333;51.976;20.144;2022-07-22T10:07:16;100265.75;;;51.87;11.43
36664;BME280;53333;51.976;20.144;2022-07-22T10:09:52;100271.22;;;51.92;12.19
36664;BME280;53333;51.976;20.144;2022-07-22T10:12:26;100261.81;;;51.80;12.53
36664;BME280;53333;51.976;20.144;2022-07-22T10:15:01;100259.66;;;51.64;12.53
36664;BME280;53333;51.976;20.144;2022-07-22T10:17:38;100259.34;;;51.57;12.13
36664;BME280;53333;51.976;20.144;2022-07-22T10:20:12;100264.09;;;51.53;12.42
36664;BME280;53333;51.976;20.144;2022-07-22T10:22:49;100257.72;;;50.93;12.90
36664;BME280;53333;51.976;20.144;2022-07-22T10:25:32;100255.84;;;50.67;13.07
36664;BME280;53333;51.976;20.144;2022-07-22T10:28:06;100249.78;;;49.74;13.76
36664;BME280;53333;51.976;20.144;2022-07-22T10:30:39;100248.81;;;49.08;14.93
36664;BME280;53333;51.976;20.144;2022-07-22T10:33:16;100245.34;;;48.54;14.56
36664;BME280;53333;51.976;20.144;2022-07-22T10:35:55;100248.50;;;47.90;16.23
36664;BME280;53333;51.976;20.144;2022-07-22T10:38:30;100249.25;;;47.00;16.17
36664;BME280;53333;51.976;20.144;2022-07-22T10:41:06;100242.47;;;46.45;16.80
36664;BME280;53333;51.976;20.144;2022-07-22T10:43:46;100234.16;;;45.74;17.26
36664;BME280;53333;51.976;20.144;2022-07-22T10:46:50;100237.34;;;45.15;18.14
36664;BME280;53333;51.976;20.144;2022-07-22T10:49:26;100224.88;;;44.59;18.54
36664;BME280;53333;51.976;20.144;2022-07-22T10:52:09;100224.47;;;44.18;18.62
36664;BME280;53333;51.976;20.144;2022-07-22T10:55:17;100222.81;;;43.87;18.79
36664;BME280;53333;51.976;20.144;2022-07-22T10:57:51;100228.59;;;43.67;19.21
36664;BME280;53333;51.976;20.144;2022-07-22T11:00:25;100231.84;;;43.45;18.81
36664;BME280;53333;51.976;20.144;2022-07-22T11:02:59;100224.13;;;43.26;18.82
36664;BME280;53333;51.976;20.144;2022-07-22T11:05:35;100214.47;;;42.98;19.02
36664;BME280;53333;51.976;20.144;2022-07-22T11:08:09;100221.53;;;42.85;18.93
36664;BME280;53333;51.976;20.144;2022-07-22T11:10:46;100220.72;;;42.74;18.89
36664;BME280;53333;51.976;20.144;2022-07-22T11:13:30;100218.31;;;42.42;18.79
36664;BME280;53333;51.976;20.144;2022-07-22T11:16:15;100209.72;;;42.02;19.66
36664;BME280;53333;51.976;20.144;2022-07-22T11:18:51;100217.31;;;41.50;20.46
36664;BME280;53333;51.976;20.144;2022-07-22T11:21:29;100209.94;;;41.03;20.07
36664;BME280;53333;51.976;20.144;2022-07-22T11:24:06;100215.97;;;40.69;21.21
36664;BME280;53333;51.976;20.144;2022-07-22T11:26:41;100210.28;;;40.54;20.83
36664;BME280;53333;51.976;20.144;2022-07-22T11:29:18;100210.25;;;40.43;21.32
36664;BME280;53333;51.976;20.144;2022-07-22T11:31:58;100217.47;;;40.39;23.03
36664;BME280;53333;51.976;20.144;2022-07-22T11:34:31;100211.66;;;40.46;22.23
36664;BME280;53333;51.976;20.144;2022-07-22T11:37:06;100215.63;;;40.55;22.88
36664;BME280;53333;51.976;20.144;2022-07-22T11:39:40;100220.97;;;40.62;22.71
36664;BME280;53333;51.976;20.144;2022-07-22T11:42:14;100220.13;;;40.66;22.75
36664;BME280;53333;51.976;20.144;2022-07-22T11:44:48;100220.69;;;40.63;22.33
36664;BME280;53333;51.976;20.144;2022-07-22T11:47:24;100218.06;;;40.41;22.96
36664;BME280;53333;51.976;20.144;2022-07-22T11:49:57;100212.31;;;40.21;21.98
36664;BME280;53333;51.976;20.144;2022-07-22T11:52:33;100210.59;;;40.09;22.77
36664;BME280;53333;51.976;20.144;2022-07-22T11:55:14;100211.00;;;39.91;23.21
36664;BME280;53333;51.976;20.144;2022-07-22T11:57:48;100215.66;;;39.75;22.94
36664;BME280;53333;51.976;20.144;2022-07-22T12:00:22;100207.16;;;39.65;24.09
36664;BME280;53333;51.976;20.144;2022-07-22T12:02:56;100207.09;;;39.54;23.47
36664;BME280;53333;51.976;20.144;2022-07-22T12:05:30;100205.34;;;39.48;23.98
36664;BME280;53333;51.976;20.144;2022-07-22T12:08:06;100205.72;;;39.30;23.24
36664;BME280;53333;51.976;20.144;2022-07-22T12:10:40;100208.78;;;39.06;22.98
36664;BME280;53333;51.976;20.144;2022-07-22T12:13:13;100208.19;;;38.77;23.01
36664;BME280;53333;51.976;20.144;2022-07-22T12:15:47;100211.16;;;38.48;24.54
36664;BME280;53333;51.976;20.144;2022-07-22T12:18:22;100203.09;;;38.29;25.98
36664;BME280;53333;51.976;20.144;2022-07-22T12:20:56;100204.66;;;38.20;25.03
36664;BME280;53333;51.976;20.144;2022-07-22T12:23:31;100191.66;;;38.09;25.89
36664;BME280;53333;51.976;20.144;2022-07-22T12:26:05;100190.78;;;38.08;25.69
36664;BME280;53333;51.976;20.144;2022-07-22T12:28:41;100191.56;;;38.04;25.94
36664;BME280;53333;51.976;20.144;2022-07-22T12:31:15;100198.75;;;38.00;25.62
36664;BME280;53333;51.976;20.144;2022-07-22T12:33:49;100181.94;;;37.94;24.87
36664;BME280;53333;51.976;20.144;2022-07-22T12:36:32;100173.88;;;37.93;25.38
36664;BME280;53333;51.976;20.144;2022-07-22T12:39:15;100182.06;;;37.83;25.16
36664;BME280;53333;51.976;20.144;2022-07-22T12:41:51;100185.53;;;37.73;25.83
36664;BME280;53333;51.976;20.144;2022-07-22T12:44:28;100182.41;;;37.69;26.27
36664;BME280;53333;51.976;20.144;2022-07-22T12:47:06;100180.63;;;37.63;25.91
36664;BME280;53333;51.976;20.144;2022-07-22T12:49:40;100179.34;;;37.54;25.81
36664;BME280;53333;51.976;20.144;2022-07-22T12:52:14;100168.38;;;37.47;26.16
36664;BME280;53333;51.976;20.144;2022-07-22T12:54:48;100177.31;;;37.49;27.29
36664;BME280;53333;51.976;20.144;2022-07-22T12:57:22;100179.00;;;37.50;25.96
36664;BME280;53333;51.976;20.144;2022-07-22T12:59:56;100166.34;;;37.42;25.49
36664;BME280;53333;51.976;20.144;2022-07-22T13:02:29;100170.31;;;37.30;26.21
36664;BME280;53333;51.976;20.144;2022-07-22T13:05:04;100176.69;;;37.13;25.63
36664;BME280;53333;51.976;20.144;2022-07-22T13:07:38;100169.97;;;36.97;26.40
36664;BME280;53333;51.976;20.144;2022-07-22T13:10:16;100162.78;;;36.84;26.09
36664;BME280;53333;51.976;20.144;2022-07-22T13:12:54;100164.38;;;36.80;27.38
36664;BME280;53333;51.976;20.144;2022-07-22T13:15:27;100168.72;;;36.76;26.73
36664;BME280;53333;51.976;20.144;2022-07-22T13:18:06;100167.16;;;36.68;26.69
36664;BME280;53333;51.976;20.144;2022-07-22T13:20:39;100154.84;;;36.64;27.52
36664;BME280;53333;51.976;20.144;2022-07-22T13:23:13;100157.72;;;36.69;27.42
36664;BME280;53333;51.976;20.144;2022-07-22T13:25:48;100147.19;;;36.71;26.53
36664;BME280;53333;51.976;20.144;2022-07-22T13:28:26;100148.28;;;36.70;26.19
36664;BME280;53333;51.976;20.144;2022-07-22T13:31:00;100151.31;;;36.69;26.81